Metar Cercanos

 

LEPA - Palma De Mallorc, Spain
Distance from station: ONO 38km
Actualización: Sat, 01-Apr-2023 8:30am CEST
Despejado
Despejado
 Viento del E
Viento: E 6 km/h
Temperatura: 12°C
Rocío: 10°C
Humedad: 88%
Barómetro: 1018 hPa
Resumen: Despejado
Visibility: greater than 10 km
2023/04/01 06:30 LEPA 010630Z 10003KT CAVOK 12/10 Q1018 NOSIG
LEMH - Mahon/Menorca Is, Spain
Distance from station: ENE 105km
Actualización: Sat, 01-Apr-2023 8:30am CEST
Few Clouds
Few Clouds
 Viento del NE
Viento: NE 11 km/h
Temperatura: 14°C
Rocío: 8°C
Humedad: 67%
Barómetro: 1018 hPa
Clouds: Few Clouds
Visibility: 10 km
Cloud details: Few Clouds 457 m
2023/04/01 06:30 LEMH 010630Z 04006KT 9999 FEW015 14/08 Q1018
 
LEIB - Ibiza/Es Codola, Spain
Distance from station: OSO 165km
Actualización: Sat, 01-Apr-2023 8:30am CEST
Despejado
Despejado
 Viento del NNE
Viento: NNE 7 km/h
Temperatura: 15°C
Rocío: 12°C
Humedad: 82%
Barómetro: 1019 hPa
Resumen: Despejado
Visibility: greater than 10 km
2023/04/01 06:30 LEIB 010630Z 03004KT CAVOK 15/12 Q1019 NOSIG
LEBL - Barcelona Airpor, Spain
Distance from station: NNO 225km
Actualización: Sat, 01-Apr-2023 8:30am CEST
Few Clouds
Few Clouds
 Viento del NNO
Viento: NNO 13 km/h
Temperatura: 13°C
Rocío: 10°C
Humedad: 82%
Barómetro: 1017 hPa
Clouds: Few Clouds
Visibility: 10 km
Cloud details: Few Clouds 549 m
2023/04/01 06:30 LEBL 010630Z 34007KT 290V030 9999 FEW018 13/10 Q1017 NOSIG
 
LEVC - Valencia (civ/Mi, Spain
Distance from station: NO 188km
Actualización: Sat, 01-Apr-2023 8:30am CEST
Despejado
Despejado
 Viento del NO
Viento: NO 13 km/h
Temperatura: 16°C
Rocío: 6°C
Humedad: 52%
Barómetro: 1019 hPa
Resumen: Despejado
Visibility: greater than 10 km
2023/04/01 06:30 LEVC 010630Z 32007KT CAVOK 16/06 Q1019 NOSIG
LEGE - Gerona/Costa Bra, Spain
Distance from station: N 276km
Actualización: Sat, 01-Apr-2023 8:30am CEST
Muy nuboso
Muy nuboso
 Viento del calm
Viento: Calma
Temperatura: 10°C
Rocío: 9°C
Humedad: 94%
Barómetro: 1017 hPa
Clouds: Muy nuboso
Visibility: 10 km
Cloud details: Few Clouds 914 m
Muy nuboso 1981 m
2023/04/01 06:30 LEGE 010630Z 00000KT 9999 FEW030 BKN065 10/09 Q1017
 
LEAL - Alicante/El Alte, Spain
Distance from station: OSO 344km
Actualización: Sat, 01-Apr-2023 8:30am CEST
Despejado
Despejado
 Viento del ONO
Viento: ONO 17 km/h
Temperatura: 20°C
Rocío: 8°C
Humedad: 46%
Barómetro: 1019 hPa
Resumen: Despejado
Visibility: greater than 10 km
2023/04/01 06:30 LEAL 010630Z 30009KT 250V330 CAVOK 20/08 Q1019 NOSIG
LEAM - Almeria Airport, Spain
Distance from station: SSO 56km
Actualización: Sat, 01-Apr-2023 8:30am CEST
Despejado
Despejado
 Viento del varies
Viento: varies 15 km/h, Racha: 39 km/h
Temperatura: 24°C
Rocío: 5°C
Humedad: 29%
Barómetro: 1019 hPa
Resumen: Despejado
Visibility: greater than 10 km
2023/04/01 06:30 LEAM 010630Z VRB08G21KT CAVOK 24/05 Q1019
 
LEZG - Zaragoza (mil/Ci, Spain
Distance from station: NO 431km
Actualización: Sat, 01-Apr-2023 8:30am CEST
Cubierto
Cubierto
 Viento del O
Viento: O 15 km/h
Temperatura: 13°C
Rocío: 6°C
Humedad: 63%
Barómetro: 1020 hPa
Clouds: Cubierto
Visibility: 10 km
Cloud details: Cubierto 1219 m
2023/04/01 06:30 LEZG 010630Z 27008KT 9999 OVC040 13/06 Q1020
LEMD - Madrid/Barajas, Spain
Distance from station: ONO 234km
Actualización: Sat, 01-Apr-2023 8:30am CEST
Few Clouds
Few Clouds
 Viento del ONO
Viento: ONO 11 km/h
Temperatura: 11°C
Rocío: 3°C
Humedad: 58%
Barómetro: 1022 hPa
Clouds: Few Clouds
Visibility: 10 km
Cloud details: Few Clouds 2286 m
2023/04/01 06:30 LEMD 010630Z 29006KT 260V350 9999 FEW075 11/03 Q1022 NOSIG
 
LEGR - Granada Airport, Spain
Distance from station: OSO 62km
Actualización: Sat, 01-Apr-2023 8:30am CEST
Despejado
Despejado
 Viento del SO
Viento: SO 6 km/h
Temperatura: 10°C
Rocío: 8°C
Humedad: 88%
Barómetro: 1024 hPa
Resumen: Despejado
Visibility: greater than 10 km
2023/04/01 06:30 LEGR 010630Z 22003KT CAVOK 10/08 Q1024
LEMG - Malaga (civ/Mil), Spain
Distance from station: OSO 227km
Actualización: Sat, 01-Apr-2023 8:30am CEST
Few Clouds
Few Clouds
 Viento del ONO
Viento: ONO 28 km/h
Temperatura: 17°C
Rocío: 11°C
Humedad: 68%
Barómetro: 1022 hPa
Clouds: Few Clouds
Visibility: 10 km
Cloud details: Few Clouds 1219 m
2023/04/01 06:30 LEMG 010630Z 29015KT 9999 FEW040 17/11 Q1022 NOSIG
 
LEZL - Sevilla (civ/Mil, Spain
Distance from station: S 318km
Actualización: Sat, 01-Apr-2023 8:30am CEST
Despejado
Despejado
 Viento del varies
Viento: varies 2 km/h
Temperatura: 14°C
Rocío: 10°C
Humedad: 77%
Barómetro: 1025 hPa
Resumen: Despejado
Visibility: greater than 10 km
2023/04/01 06:30 LEZL 010630Z VRB01KT CAVOK 14/10 Q1025 NOSIG
LEVT - Vitoria, Spain
Distance from station: NO 226km
Actualización: Sat, 01-Apr-2023 8:30am CEST
Muy nuboso
Muy nuboso
 Viento del ONO
Viento: ONO 6 km/h
Temperatura: 8°C
Rocío: 6°C
Humedad: 87%
Barómetro: 1021 hPa
Clouds: Muy nuboso
Visibility: 10 km
Cloud details: Few Clouds 1067 m
Muy nuboso 1829 m
2023/04/01 06:30 LEVT 010630Z 30003KT 250V340 9999 FEW035 BKN060 08/06 Q1021
 
LEBB - Bilbao/Sondica, Spain
Distance from station: NNO 235km
Actualización: Sat, 01-Apr-2023 8:30am CEST
Muy nuboso
Muy nuboso
 Viento del varies
Viento: varies 4 km/h
Temperatura: 11°C
Rocío: 9°C
Humedad: 88%
Barómetro: 1021 hPa
Clouds: Muy nuboso
Visibility: 10 km
Cloud details: Parcialmente nuboso 1006 m
Muy nuboso 1524 m
2023/04/01 06:30 LEBB 010630Z VRB02KT 9999 SCT033 BKN050 11/09 Q1021 TEMPO 3000 RA
LESO - San Sebastian/Fu, Spain
Distance from station: N 231km
Actualización: Sat, 01-Apr-2023 8:30am CEST
Muy nuboso
Muy nuboso
 Viento del varies
Viento: varies 9 km/h
Temperatura: 14°C
Rocío: 10°C
Humedad: 77%
Barómetro: 1021 hPa
Clouds: Muy nuboso
Visibility: 10 km
Cloud details: Muy nuboso 762 m
Muy nuboso 975 m
2023/04/01 06:30 LESO 010630Z VRB05KT 9999 BKN025 BKN032 14/10 Q1021
 
LEVD - Valladolid(Mil/C, Spain
Distance from station: ONO 239km
Actualización: Sat, 01-Apr-2023 8:30am CEST
Parcialmente nuboso
Parcialmente nuboso
 Viento del O
Viento: O 20 km/h
Temperatura: 7°C
Sensación frio: 4°C
Rocío: 5°C
Humedad: 87%
Barómetro: 1022 hPa
Clouds: Parcialmente nuboso
Visibility: 10 km
Cloud details: Parcialmente nuboso 1311 m
2023/04/01 06:30 LEVD 010630Z 27011KT 9999 SCT043 07/05 Q1022
LESA - Salamanca (civ/M, Spain
Distance from station: ONO 349km
Actualización: Sat, 01-Apr-2023 8:30am CEST
Parcialmente nuboso
Parcialmente nuboso
 Viento del O
Viento: O 13 km/h
Temperatura: 7°C
Sensación frio: 5°C
Rocío: 4°C
Humedad: 81%
Barómetro: 1024 hPa
Clouds: Parcialmente nuboso
Visibility: 10 km
Cloud details: Few Clouds 1280 m
Parcialmente nuboso 1433 m
2023/04/01 06:30 LESA 010630Z 26007KT 9999 FEW042 SCT047 07/04 Q1024
 
LEXJ - Santander/Paraya, Spain
Distance from station: NNO 247km
Actualización: Sat, 01-Apr-2023 8:30am CEST
Muy nuboso
Muy nuboso
 Viento del SO
Viento: SO 15 km/h
Temperatura: 12°C
Rocío: 8°C
Humedad: 77%
Barómetro: 1021 hPa
Clouds: Muy nuboso
Visibility: 10 km
Cloud details: Muy nuboso 2134 m
2023/04/01 06:30 LEXJ 010630Z 23008KT 200V260 9999 BKN070 12/08 Q1021
LEAS - Asturias/Aviles, Spain
Distance from station: NO 214km
Actualización: Sat, 01-Apr-2023 8:30am CEST
Muy nuboso
Muy nuboso
 Viento del OSO
Viento: OSO 19 km/h
Temperatura: 11°C
Rocío: 7°C
Humedad: 77%
Barómetro: 1022 hPa
Clouds: Muy nuboso
Visibility: 10 km
Cloud details: Few Clouds 1158 m
Parcialmente nuboso 1433 m
Muy nuboso 1615 m
2023/04/01 06:30 LEAS 010630Z 24010KT 210V280 9999 FEW038 SCT047 BKN053 11/07 Q1022 NOSIG
 
LECO - La Coruna/Alvedr, Spain
Distance from station: ONO 222km
Actualización: Sat, 01-Apr-2023 8:30am CEST
Parcialmente nuboso
Parcialmente nuboso
 Viento del SO
Viento: SO 11 km/h
Temperatura: 11°C
Rocío: 8°C
Humedad: 82%
Barómetro: 1023 hPa
Clouds: Parcialmente nuboso
Visibility: 10 km
Cloud details: Parcialmente nuboso 1402 m
2023/04/01 06:30 LECO 010630Z 23006KT 9999 SCT046 11/08 Q1023 NOSIG
LEVX - Vigo/Peinador, Spain
Distance from station: O 214km
Actualización: Sat, 01-Apr-2023 8:30am CEST
Drizzle, Mist, Muy nuboso
Drizzle, Mist, Muy nuboso
 Viento del SSO
Viento: SSO 7 km/h
Temperatura: 10°C
Sensación frio: 9°C
Rocío: 9°C
Humedad: 94%
Barómetro: 1024 hPa
Resumen: Drizzle, Mist
Clouds: Muy nuboso
Visibility: 2 km
Cloud details: Few Clouds 152 m
Parcialmente nuboso 244 m
Muy nuboso 366 m
2023/04/01 06:30 LEVX 010630Z 20004KT 150V220 2200 0900SE DZ BR FEW005 SCT008 BKN012 10/09 Q1024 NOSIG